sensor_id;sensor_type;location;lat;lon;timestamp;P1;durP1;ratioP1;P2;durP2;ratioP2
6394;SDS011;3230;42.588;23.358;2022-11-20T00:00:02;1.80;;;0.90;;
6394;SDS011;3230;42.588;23.358;2022-11-20T00:02:29;3.90;;;1.37;;
6394;SDS011;3230;42.588;23.358;2022-11-20T00:04:54;3.90;;;1.20;;
6394;SDS011;3230;42.588;23.358;2022-11-20T00:07:20;3.60;;;1.67;;
6394;SDS011;3230;42.588;23.358;2022-11-20T00:09:45;3.40;;;1.33;;
6394;SDS011;3230;42.588;23.358;2022-11-20T00:12:10;4.90;;;1.53;;
6394;SDS011;3230;42.588;23.358;2022-11-20T00:14:36;4.33;;;1.57;;
6394;SDS011;3230;42.588;23.358;2022-11-20T00:17:01;1.80;;;1.13;;
6394;SDS011;3230;42.588;23.358;2022-11-20T00:19:26;3.00;;;1.30;;
6394;SDS011;3230;42.588;23.358;2022-11-20T00:21:52;1.90;;;0.90;;
6394;SDS011;3230;42.588;23.358;2022-11-20T00:24:20;2.53;;;1.60;;
6394;SDS011;3230;42.588;23.358;2022-11-20T00:26:45;7.03;;;1.20;;
6394;SDS011;3230;42.588;23.358;2022-11-20T00:29:11;2.40;;;1.10;;
6394;SDS011;3230;42.588;23.358;2022-11-20T00:31:36;1.17;;;1.07;;
6394;SDS011;3230;42.588;23.358;2022-11-20T00:34:02;3.10;;;1.00;;
6394;SDS011;3230;42.588;23.358;2022-11-20T00:36:28;1.80;;;1.40;;
6394;SDS011;3230;42.588;23.358;2022-11-20T00:38:57;1.47;;;1.30;;
6394;SDS011;3230;42.588;23.358;2022-11-20T00:41:23;4.23;;;1.50;;
6394;SDS011;3230;42.588;23.358;2022-11-20T00:43:51;2.13;;;1.40;;
6394;SDS011;3230;42.588;23.358;2022-11-20T00:46:19;6.50;;;1.33;;
6394;SDS011;3230;42.588;23.358;2022-11-20T00:48:45;3.37;;;1.40;;
6394;SDS011;3230;42.588;23.358;2022-11-20T00:51:12;2.50;;;1.23;;
6394;SDS011;3230;42.588;23.358;2022-11-20T00:53:39;3.60;;;1.13;;
6394;SDS011;3230;42.588;23.358;2022-11-20T00:56:06;0.90;;;0.90;;
6394;SDS011;3230;42.588;23.358;2022-11-20T00:58:36;4.97;;;1.10;;
6394;SDS011;3230;42.588;23.358;2022-11-20T01:01:04;4.10;;;1.40;;
6394;SDS011;3230;42.588;23.358;2022-11-20T01:03:36;2.43;;;1.30;;
6394;SDS011;3230;42.588;23.358;2022-11-20T01:06:11;2.37;;;1.17;;
6394;SDS011;3230;42.588;23.358;2022-11-20T01:08:39;1.27;;;1.10;;
6394;SDS011;3230;42.588;23.358;2022-11-20T01:11:09;2.03;;;1.30;;
6394;SDS011;3230;42.588;23.358;2022-11-20T01:13:36;1.33;;;0.80;;
6394;SDS011;3230;42.588;23.358;2022-11-20T01:16:09;0.90;;;0.80;;
6394;SDS011;3230;42.588;23.358;2022-11-20T01:18:35;1.80;;;1.23;;
6394;SDS011;3230;42.588;23.358;2022-11-20T01:21:09;1.93;;;1.20;;
6394;SDS011;3230;42.588;23.358;2022-11-20T01:23:38;1.57;;;1.20;;
6394;SDS011;3230;42.588;23.358;2022-11-20T01:26:05;4.93;;;1.30;;
6394;SDS011;3230;42.588;23.358;2022-11-20T01:28:33;3.03;;;0.93;;
6394;SDS011;3230;42.588;23.358;2022-11-20T01:30:58;1.20;;;1.00;;
6394;SDS011;3230;42.588;23.358;2022-11-20T01:33:24;2.20;;;1.00;;
6394;SDS011;3230;42.588;23.358;2022-11-20T01:35:50;2.50;;;1.17;;
6394;SDS011;3230;42.588;23.358;2022-11-20T01:38:16;2.40;;;1.20;;
6394;SDS011;3230;42.588;23.358;2022-11-20T01:40:42;1.33;;;1.00;;
6394;SDS011;3230;42.588;23.358;2022-11-20T01:43:16;1.20;;;1.00;;
6394;SDS011;3230;42.588;23.358;2022-11-20T01:48:18;2.20;;;0.90;;
6394;SDS011;3230;42.588;23.358;2022-11-20T01:50:47;1.03;;;0.93;;
6394;SDS011;3230;42.588;23.358;2022-11-20T01:53:14;2.63;;;1.03;;
6394;SDS011;3230;42.588;23.358;2022-11-20T01:55:47;3.70;;;1.10;;
6394;SDS011;3230;42.588;23.358;2022-11-20T01:58:16;2.47;;;1.00;;
6394;SDS011;3230;42.588;23.358;2022-11-20T02:00:44;1.60;;;0.90;;
6394;SDS011;3230;42.588;23.358;2022-11-20T02:03:11;2.50;;;1.10;;
6394;SDS011;3230;42.588;23.358;2022-11-20T02:08:28;1.30;;;1.20;;
6394;SDS011;3230;42.588;23.358;2022-11-20T02:10:54;3.33;;;0.90;;
6394;SDS011;3230;42.588;23.358;2022-11-20T02:13:22;2.00;;;1.33;;
6394;SDS011;3230;42.588;23.358;2022-11-20T02:16:08;1.23;;;0.90;;
6394;SDS011;3230;42.588;23.358;2022-11-20T02:18:39;1.20;;;1.07;;
6394;SDS011;3230;42.588;23.358;2022-11-20T02:23:59;1.93;;;1.03;;
6394;SDS011;3230;42.588;23.358;2022-11-20T02:26:27;5.83;;;2.03;;
6394;SDS011;3230;42.588;23.358;2022-11-20T02:28:55;1.87;;;1.13;;
6394;SDS011;3230;42.588;23.358;2022-11-20T02:31:21;1.53;;;1.10;;
6394;SDS011;3230;42.588;23.358;2022-11-20T02:33:47;1.53;;;1.03;;
6394;SDS011;3230;42.588;23.358;2022-11-20T02:36:14;1.60;;;0.90;;
6394;SDS011;3230;42.588;23.358;2022-11-20T02:38:40;4.13;;;1.57;;
6394;SDS011;3230;42.588;23.358;2022-11-20T02:41:07;1.37;;;0.90;;
6394;SDS011;3230;42.588;23.358;2022-11-20T02:43:32;1.23;;;0.90;;
6394;SDS011;3230;42.588;23.358;2022-11-20T02:45:58;4.53;;;1.00;;
6394;SDS011;3230;42.588;23.358;2022-11-20T02:48:23;3.17;;;1.30;;
6394;SDS011;3230;42.588;23.358;2022-11-20T02:50:48;2.70;;;1.37;;
6394;SDS011;3230;42.588;23.358;2022-11-20T02:53:14;1.43;;;0.90;;
6394;SDS011;3230;42.588;23.358;2022-11-20T02:55:39;1.87;;;1.10;;
6394;SDS011;3230;42.588;23.358;2022-11-20T02:58:05;2.40;;;1.20;;
6394;SDS011;3230;42.588;23.358;2022-11-20T03:00:30;2.77;;;1.20;;
6394;SDS011;3230;42.588;23.358;2022-11-20T03:02:56;4.03;;;1.00;;
6394;SDS011;3230;42.588;23.358;2022-11-20T03:05:22;2.83;;;1.30;;
6394;SDS011;3230;42.588;23.358;2022-11-20T03:07:47;1.47;;;1.20;;
6394;SDS011;3230;42.588;23.358;2022-11-20T03:10:13;2.50;;;1.40;;
6394;SDS011;3230;42.588;23.358;2022-11-20T03:12:39;2.30;;;1.37;;
6394;SDS011;3230;42.588;23.358;2022-11-20T03:15:04;3.50;;;1.40;;
6394;SDS011;3230;42.588;23.358;2022-11-20T03:17:30;5.50;;;2.17;;
6394;SDS011;3230;42.588;23.358;2022-11-20T03:19:55;3.37;;;1.70;;
6394;SDS011;3230;42.588;23.358;2022-11-20T03:22:21;2.23;;;1.20;;
6394;SDS011;3230;42.588;23.358;2022-11-20T03:24:46;2.30;;;1.20;;
6394;SDS011;3230;42.588;23.358;2022-11-20T03:27:12;2.10;;;1.17;;
6394;SDS011;3230;42.588;23.358;2022-11-20T03:29:37;3.33;;;1.13;;
6394;SDS011;3230;42.588;23.358;2022-11-20T03:32:03;2.37;;;1.00;;
6394;SDS011;3230;42.588;23.358;2022-11-20T03:34:28;2.83;;;1.43;;
6394;SDS011;3230;42.588;23.358;2022-11-20T03:36:54;2.50;;;1.10;;
6394;SDS011;3230;42.588;23.358;2022-11-20T03:39:19;1.70;;;1.30;;
6394;SDS011;3230;42.588;23.358;2022-11-20T03:41:45;4.73;;;1.07;;
6394;SDS011;3230;42.588;23.358;2022-11-20T03:44:11;2.73;;;1.20;;
6394;SDS011;3230;42.588;23.358;2022-11-20T03:46:37;2.40;;;1.10;;
6394;SDS011;3230;42.588;23.358;2022-11-20T03:49:03;1.23;;;1.13;;
6394;SDS011;3230;42.588;23.358;2022-11-20T03:51:29;2.10;;;0.97;;
6394;SDS011;3230;42.588;23.358;2022-11-20T03:54:01;2.47;;;1.13;;
6394;SDS011;3230;42.588;23.358;2022-11-20T03:56:30;2.57;;;1.40;;
6394;SDS011;3230;42.588;23.358;2022-11-20T03:58:57;4.33;;;1.47;;
6394;SDS011;3230;42.588;23.358;2022-11-20T04:01:30;1.30;;;1.20;;
6394;SDS011;3230;42.588;23.358;2022-11-20T04:03:57;2.97;;;1.00;;
6394;SDS011;3230;42.588;23.358;2022-11-20T04:06:25;2.60;;;1.00;;
6394;SDS011;3230;42.588;23.358;2022-11-20T04:08:56;2.13;;;1.30;;
6394;SDS011;3230;42.588;23.358;2022-11-20T04:11:23;8.03;;;3.90;;
6394;SDS011;3230;42.588;23.358;2022-11-20T04:13:53;2.43;;;1.70;;
6394;SDS011;3230;42.588;23.358;2022-11-20T04:16:21;3.40;;;2.27;;
6394;SDS011;3230;42.588;23.358;2022-11-20T04:18:51;2.27;;;1.30;;
6394;SDS011;3230;42.588;23.358;2022-11-20T04:21:17;2.13;;;1.50;;
6394;SDS011;3230;42.588;23.358;2022-11-20T04:23:43;3.37;;;1.20;;
6394;SDS011;3230;42.588;23.358;2022-11-20T04:26:09;2.30;;;1.20;;
6394;SDS011;3230;42.588;23.358;2022-11-20T04:28:36;4.00;;;1.20;;
6394;SDS011;3230;42.588;23.358;2022-11-20T04:31:05;1.10;;;1.00;;
6394;SDS011;3230;42.588;23.358;2022-11-20T04:33:36;3.13;;;1.40;;
6394;SDS011;3230;42.588;23.358;2022-11-20T04:36:12;3.10;;;1.23;;
6394;SDS011;3230;42.588;23.358;2022-11-20T04:38:42;7.00;;;1.23;;
6394;SDS011;3230;42.588;23.358;2022-11-20T04:41:11;2.30;;;1.10;;
6394;SDS011;3230;42.588;23.358;2022-11-20T04:43:40;5.03;;;1.73;;
6394;SDS011;3230;42.588;23.358;2022-11-20T04:46:06;4.33;;;1.30;;
6394;SDS011;3230;42.588;23.358;2022-11-20T04:48:31;1.90;;;1.03;;
6394;SDS011;3230;42.588;23.358;2022-11-20T04:50:57;3.63;;;1.50;;
6394;SDS011;3230;42.588;23.358;2022-11-20T04:53:23;1.30;;;1.20;;
6394;SDS011;3230;42.588;23.358;2022-11-20T04:55:49;6.50;;;1.20;;
6394;SDS011;3230;42.588;23.358;2022-11-20T04:58:14;2.50;;;1.10;;
6394;SDS011;3230;42.588;23.358;2022-11-20T05:00:41;1.40;;;1.30;;
6394;SDS011;3230;42.588;23.358;2022-11-20T05:03:07;2.13;;;1.17;;
6394;SDS011;3230;42.588;23.358;2022-11-20T05:05:35;1.77;;;1.20;;
6394;SDS011;3230;42.588;23.358;2022-11-20T05:08:01;4.63;;;1.40;;
6394;SDS011;3230;42.588;23.358;2022-11-20T05:10:26;2.50;;;1.70;;
6394;SDS011;3230;42.588;23.358;2022-11-20T05:12:52;1.53;;;1.33;;
6394;SDS011;3230;42.588;23.358;2022-11-20T05:15:18;0.93;;;0.87;;
6394;SDS011;3230;42.588;23.358;2022-11-20T05:17:50;2.30;;;1.10;;
6394;SDS011;3230;42.588;23.358;2022-11-20T05:20:17;4.20;;;1.47;;
6394;SDS011;3230;42.588;23.358;2022-11-20T05:22:43;1.57;;;1.30;;
6394;SDS011;3230;42.588;23.358;2022-11-20T05:25:09;1.67;;;1.20;;
6394;SDS011;3230;42.588;23.358;2022-11-20T05:27:35;2.80;;;1.23;;
6394;SDS011;3230;42.588;23.358;2022-11-20T05:30:01;4.80;;;1.17;;
6394;SDS011;3230;42.588;23.358;2022-11-20T05:32:26;3.97;;;1.30;;
6394;SDS011;3230;42.588;23.358;2022-11-20T05:34:52;1.53;;;1.23;;
6394;SDS011;3230;42.588;23.358;2022-11-20T05:37:17;1.70;;;1.23;;
6394;SDS011;3230;42.588;23.358;2022-11-20T05:39:43;3.07;;;1.43;;
6394;SDS011;3230;42.588;23.358;2022-11-20T05:42:08;2.83;;;1.30;;
6394;SDS011;3230;42.588;23.358;2022-11-20T05:44:52;2.30;;;1.20;;
6394;SDS011;3230;42.588;23.358;2022-11-20T05:47:18;2.90;;;1.30;;
6394;SDS011;3230;42.588;23.358;2022-11-20T05:49:43;3.90;;;1.20;;
6394;SDS011;3230;42.588;23.358;2022-11-20T05:52:09;4.93;;;1.70;;
6394;SDS011;3230;42.588;23.358;2022-11-20T05:54:34;4.80;;;2.07;;
6394;SDS011;3230;42.588;23.358;2022-11-20T05:57:00;5.47;;;2.77;;
6394;SDS011;3230;42.588;23.358;2022-11-20T05:59:25;3.50;;;1.50;;
6394;SDS011;3230;42.588;23.358;2022-11-20T06:01:51;4.43;;;2.20;;
6394;SDS011;3230;42.588;23.358;2022-11-20T06:04:16;3.47;;;1.90;;
6394;SDS011;3230;42.588;23.358;2022-11-20T06:06:41;2.90;;;1.40;;
6394;SDS011;3230;42.588;23.358;2022-11-20T06:09:07;3.13;;;1.87;;
6394;SDS011;3230;42.588;23.358;2022-11-20T06:11:32;5.23;;;3.30;;
6394;SDS011;3230;42.588;23.358;2022-11-20T06:13:58;4.17;;;1.90;;
6394;SDS011;3230;42.588;23.358;2022-11-20T06:16:23;5.50;;;2.50;;
6394;SDS011;3230;42.588;23.358;2022-11-20T06:18:49;4.90;;;1.90;;
6394;SDS011;3230;42.588;23.358;2022-11-20T06:21:15;2.37;;;1.63;;
6394;SDS011;3230;42.588;23.358;2022-11-20T06:23:43;1.90;;;1.60;;
6394;SDS011;3230;42.588;23.358;2022-11-20T06:26:10;2.73;;;2.00;;
6394;SDS011;3230;42.588;23.358;2022-11-20T06:28:37;7.37;;;3.20;;
6394;SDS011;3230;42.588;23.358;2022-11-20T06:31:04;2.43;;;1.33;;
6394;SDS011;3230;42.588;23.358;2022-11-20T06:33:30;4.43;;;1.53;;
6394;SDS011;3230;42.588;23.358;2022-11-20T06:35:56;2.80;;;1.03;;
6394;SDS011;3230;42.588;23.358;2022-11-20T06:38:23;3.13;;;1.70;;
6394;SDS011;3230;42.588;23.358;2022-11-20T06:40:52;2.27;;;1.10;;
6394;SDS011;3230;42.588;23.358;2022-11-20T06:43:18;1.33;;;1.03;;
6394;SDS011;3230;42.588;23.358;2022-11-20T06:45:44;2.70;;;1.37;;
6394;SDS011;3230;42.588;23.358;2022-11-20T06:48:09;4.37;;;1.47;;
6394;SDS011;3230;42.588;23.358;2022-11-20T06:50:38;1.00;;;0.90;;
6394;SDS011;3230;42.588;23.358;2022-11-20T06:53:04;2.70;;;1.20;;
6394;SDS011;3230;42.588;23.358;2022-11-20T06:55:31;2.20;;;1.13;;
6394;SDS011;3230;42.588;23.358;2022-11-20T06:57:56;2.13;;;1.57;;
6394;SDS011;3230;42.588;23.358;2022-11-20T07:00:22;1.40;;;0.97;;
6394;SDS011;3230;42.588;23.358;2022-11-20T07:02:48;1.37;;;1.10;;
6394;SDS011;3230;42.588;23.358;2022-11-20T07:05:13;18.80;;;8.13;;
6394;SDS011;3230;42.588;23.358;2022-11-20T07:07:39;11.87;;;4.13;;
6394;SDS011;3230;42.588;23.358;2022-11-20T07:10:04;12.20;;;5.90;;
6394;SDS011;3230;42.588;23.358;2022-11-20T07:12:30;23.63;;;5.87;;
6394;SDS011;3230;42.588;23.358;2022-11-20T07:14:55;17.60;;;7.70;;
6394;SDS011;3230;42.588;23.358;2022-11-20T07:17:21;16.30;;;7.23;;
6394;SDS011;3230;42.588;23.358;2022-11-20T07:19:47;10.00;;;4.30;;
6394;SDS011;3230;42.588;23.358;2022-11-20T07:22:12;13.90;;;6.07;;
6394;SDS011;3230;42.588;23.358;2022-11-20T07:24:38;8.40;;;4.40;;
6394;SDS011;3230;42.588;23.358;2022-11-20T07:27:04;4.13;;;1.63;;
6394;SDS011;3230;42.588;23.358;2022-11-20T07:29:29;8.10;;;3.10;;
6394;SDS011;3230;42.588;23.358;2022-11-20T07:31:55;1.80;;;1.43;;
6394;SDS011;3230;42.588;23.358;2022-11-20T07:34:23;5.53;;;2.00;;
6394;SDS011;3230;42.588;23.358;2022-11-20T07:36:48;2.80;;;1.43;;
6394;SDS011;3230;42.588;23.358;2022-11-20T07:39:14;6.40;;;2.60;;
6394;SDS011;3230;42.588;23.358;2022-11-20T07:41:39;2.33;;;1.50;;
6394;SDS011;3230;42.588;23.358;2022-11-20T07:44:04;4.27;;;1.87;;
6394;SDS011;3230;42.588;23.358;2022-11-20T07:46:30;4.10;;;1.30;;
6394;SDS011;3230;42.588;23.358;2022-11-20T07:48:56;2.97;;;1.10;;
6394;SDS011;3230;42.588;23.358;2022-11-20T07:51:21;5.10;;;1.90;;
6394;SDS011;3230;42.588;23.358;2022-11-20T07:53:47;2.93;;;1.17;;
6394;SDS011;3230;42.588;23.358;2022-11-20T07:56:12;6.30;;;1.67;;
6394;SDS011;3230;42.588;23.358;2022-11-20T07:58:39;3.07;;;1.50;;
6394;SDS011;3230;42.588;23.358;2022-11-20T08:01:05;3.60;;;1.90;;
6394;SDS011;3230;42.588;23.358;2022-11-20T08:03:31;3.73;;;1.73;;
6394;SDS011;3230;42.588;23.358;2022-11-20T08:06:00;2.77;;;1.80;;
6394;SDS011;3230;42.588;23.358;2022-11-20T08:08:26;2.40;;;1.70;;
6394;SDS011;3230;42.588;23.358;2022-11-20T08:10:53;6.17;;;1.60;;
6394;SDS011;3230;42.588;23.358;2022-11-20T08:13:38;7.60;;;2.60;;
6394;SDS011;3230;42.588;23.358;2022-11-20T08:16:22;4.87;;;1.37;;
6394;SDS011;3230;42.588;23.358;2022-11-20T08:18:48;3.97;;;1.47;;
6394;SDS011;3230;42.588;23.358;2022-11-20T08:21:13;5.43;;;1.73;;
6394;SDS011;3230;42.588;23.358;2022-11-20T08:23:38;5.37;;;1.57;;
6394;SDS011;3230;42.588;23.358;2022-11-20T08:26:04;6.27;;;1.57;;
6394;SDS011;3230;42.588;23.358;2022-11-20T08:28:29;10.60;;;2.07;;
6394;SDS011;3230;42.588;23.358;2022-11-20T08:30:59;11.47;;;1.83;;
6394;SDS011;3230;42.588;23.358;2022-11-20T08:33:25;4.03;;;1.77;;
6394;SDS011;3230;42.588;23.358;2022-11-20T08:35:50;13.33;;;2.30;;
6394;SDS011;3230;42.588;23.358;2022-11-20T08:38:16;8.80;;;2.20;;
6394;SDS011;3230;42.588;23.358;2022-11-20T08:40:41;5.07;;;2.47;;
6394;SDS011;3230;42.588;23.358;2022-11-20T08:43:27;7.70;;;2.90;;
6394;SDS011;3230;42.588;23.358;2022-11-20T08:45:52;3.83;;;2.40;;
6394;SDS011;3230;42.588;23.358;2022-11-20T08:48:17;5.33;;;2.10;;
6394;SDS011;3230;42.588;23.358;2022-11-20T08:50:43;3.87;;;1.80;;
6394;SDS011;3230;42.588;23.358;2022-11-20T08:53:08;7.37;;;2.30;;
6394;SDS011;3230;42.588;23.358;2022-11-20T08:55:34;5.30;;;2.80;;
6394;SDS011;3230;42.588;23.358;2022-11-20T08:58:04;15.23;;;2.40;;
6394;SDS011;3230;42.588;23.358;2022-11-20T09:00:29;6.73;;;2.50;;
6394;SDS011;3230;42.588;23.358;2022-11-20T09:02:55;6.37;;;2.87;;
6394;SDS011;3230;42.588;23.358;2022-11-20T09:05:20;13.10;;;7.60;;
6394;SDS011;3230;42.588;23.358;2022-11-20T09:07:46;11.10;;;4.23;;
6394;SDS011;3230;42.588;23.358;2022-11-20T09:10:11;5.90;;;3.80;;
6394;SDS011;3230;42.588;23.358;2022-11-20T09:12:36;5.63;;;3.00;;
6394;SDS011;3230;42.588;23.358;2022-11-20T09:15:02;5.87;;;3.20;;
6394;SDS011;3230;42.588;23.358;2022-11-20T09:17:27;5.97;;;4.03;;
6394;SDS011;3230;42.588;23.358;2022-11-20T09:19:53;5.90;;;4.20;;
6394;SDS011;3230;42.588;23.358;2022-11-20T09:22:18;9.43;;;5.77;;
6394;SDS011;3230;42.588;23.358;2022-11-20T09:24:43;6.93;;;4.37;;
6394;SDS011;3230;42.588;23.358;2022-11-20T09:27:09;6.20;;;3.80;;
6394;SDS011;3230;42.588;23.358;2022-11-20T09:29:34;8.70;;;4.40;;
6394;SDS011;3230;42.588;23.358;2022-11-20T09:32:00;8.00;;;4.40;;
6394;SDS011;3230;42.588;23.358;2022-11-20T09:34:25;6.73;;;3.90;;
6394;SDS011;3230;42.588;23.358;2022-11-20T09:36:51;6.10;;;3.70;;
6394;SDS011;3230;42.588;23.358;2022-11-20T09:39:16;12.33;;;6.00;;
6394;SDS011;3230;42.588;23.358;2022-11-20T09:52:47;8.73;;;4.53;;
6394;SDS011;3230;42.588;23.358;2022-11-20T09:55:15;7.10;;;4.47;;
6394;SDS011;3230;42.588;23.358;2022-11-20T09:57:42;7.50;;;4.43;;
6394;SDS011;3230;42.588;23.358;2022-11-20T10:00:11;12.50;;;4.67;;
6394;SDS011;3230;42.588;23.358;2022-11-20T10:02:51;5.23;;;4.23;;
6394;SDS011;3230;42.588;23.358;2022-11-20T10:05:30;8.63;;;3.80;;
6394;SDS011;3230;42.588;23.358;2022-11-20T10:10:45;6.43;;;2.60;;
6394;SDS011;3230;42.588;23.358;2022-11-20T10:18:37;17.27;;;4.10;;
6394;SDS011;3230;42.588;23.358;2022-11-20T10:21:09;10.10;;;3.93;;
6394;SDS011;3230;42.588;23.358;2022-11-20T10:29:34;10.20;;;3.83;;
6394;SDS011;3230;42.588;23.358;2022-11-20T10:32:07;8.93;;;2.97;;
6394;SDS011;3230;42.588;23.358;2022-11-20T10:34:47;9.70;;;3.40;;
6394;SDS011;3230;42.588;23.358;2022-11-20T10:37:25;13.30;;;3.37;;
6394;SDS011;3230;42.588;23.358;2022-11-20T10:42:26;15.93;;;6.10;;
6394;SDS011;3230;42.588;23.358;2022-11-20T10:47:56;10.77;;;6.33;;
6394;SDS011;3230;42.588;23.358;2022-11-20T10:50:35;12.83;;;4.37;;
6394;SDS011;3230;42.588;23.358;2022-11-20T10:55:42;19.10;;;5.70;;
6394;SDS011;3230;42.588;23.358;2022-11-20T11:01:05;14.83;;;3.00;;
6394;SDS011;3230;42.588;23.358;2022-11-20T11:03:38;11.83;;;4.20;;
6394;SDS011;3230;42.588;23.358;2022-11-20T11:08:37;9.57;;;4.27;;
6394;SDS011;3230;42.588;23.358;2022-11-20T11:13:50;16.30;;;4.13;;
6394;SDS011;3230;42.588;23.358;2022-11-20T11:16:20;11.90;;;3.97;;
6394;SDS011;3230;42.588;23.358;2022-11-20T11:18:48;6.77;;;2.10;;
6394;SDS011;3230;42.588;23.358;2022-11-20T11:21:13;11.57;;;7.17;;
6394;SDS011;3230;42.588;23.358;2022-11-20T11:23:57;18.63;;;12.80;;
6394;SDS011;3230;42.588;23.358;2022-11-20T11:26:24;4.37;;;3.07;;
6394;SDS011;3230;42.588;23.358;2022-11-20T11:29:00;2.50;;;2.20;;
6394;SDS011;3230;42.588;23.358;2022-11-20T11:31:33;4.33;;;2.30;;
6394;SDS011;3230;42.588;23.358;2022-11-20T11:34:06;5.03;;;2.80;;
6394;SDS011;3230;42.588;23.358;2022-11-20T11:36:35;6.13;;;3.30;;
6394;SDS011;3230;42.588;23.358;2022-11-20T11:39:01;3.37;;;1.30;;
6394;SDS011;3230;42.588;23.358;2022-11-20T11:41:30;4.50;;;1.40;;
6394;SDS011;3230;42.588;23.358;2022-11-20T11:47:01;2.77;;;1.80;;
6394;SDS011;3230;42.588;23.358;2022-11-20T11:49:28;5.73;;;3.13;;
6394;SDS011;3230;42.588;23.358;2022-11-20T11:54:42;3.73;;;1.90;;
6394;SDS011;3230;42.588;23.358;2022-11-20T12:00:03;6.70;;;1.90;;
6394;SDS011;3230;42.588;23.358;2022-11-20T12:02:38;2.40;;;1.50;;
6394;SDS011;3230;42.588;23.358;2022-11-20T12:08:15;1.90;;;1.53;;
6394;SDS011;3230;42.588;23.358;2022-11-20T12:16:04;4.47;;;3.20;;
6394;SDS011;3230;42.588;23.358;2022-11-20T12:18:30;5.57;;;3.73;;
6394;SDS011;3230;42.588;23.358;2022-11-20T12:30:13;3.27;;;1.70;;
6394;SDS011;3230;42.588;23.358;2022-11-20T12:46:11;6.40;;;3.30;;
6394;SDS011;3230;42.588;23.358;2022-11-20T12:48:42;4.00;;;1.90;;
6394;SDS011;3230;42.588;23.358;2022-11-20T12:56:43;4.67;;;1.67;;
6394;SDS011;3230;42.588;23.358;2022-11-20T13:02:25;7.13;;;2.17;;
6394;SDS011;3230;42.588;23.358;2022-11-20T13:05:17;6.67;;;2.00;;
6394;SDS011;3230;42.588;23.358;2022-11-20T13:07:50;5.63;;;3.07;;
6394;SDS011;3230;42.588;23.358;2022-11-20T13:10:35;12.30;;;4.33;;
6394;SDS011;3230;42.588;23.358;2022-11-20T13:13:22;3.57;;;2.03;;
6394;SDS011;3230;42.588;23.358;2022-11-20T13:15:56;14.60;;;5.63;;
6394;SDS011;3230;42.588;23.358;2022-11-20T13:18:27;12.30;;;5.00;;
6394;SDS011;3230;42.588;23.358;2022-11-20T13:20:59;13.20;;;4.60;;
6394;SDS011;3230;42.588;23.358;2022-11-20T13:23:25;8.60;;;1.70;;
6394;SDS011;3230;42.588;23.358;2022-11-20T13:26:03;2.83;;;1.30;;
6394;SDS011;3230;42.588;23.358;2022-11-20T13:28:40;4.73;;;1.80;;
6394;SDS011;3230;42.588;23.358;2022-11-20T13:31:09;2.43;;;1.20;;
6394;SDS011;3230;42.588;23.358;2022-11-20T13:33:53;2.60;;;1.20;;
6394;SDS011;3230;42.588;23.358;2022-11-20T13:36:24;3.00;;;1.57;;
6394;SDS011;3230;42.588;23.358;2022-11-20T13:38:52;5.27;;;1.77;;
6394;SDS011;3230;42.588;23.358;2022-11-20T13:41:23;2.17;;;1.27;;
6394;SDS011;3230;42.588;23.358;2022-11-20T13:46:43;3.33;;;2.20;;
6394;SDS011;3230;42.588;23.358;2022-11-20T13:49:18;2.10;;;1.40;;
6394;SDS011;3230;42.588;23.358;2022-11-20T13:51:46;6.43;;;1.90;;
6394;SDS011;3230;42.588;23.358;2022-11-20T14:00:22;7.00;;;2.00;;
6394;SDS011;3230;42.588;23.358;2022-11-20T14:05:24;4.63;;;1.90;;
6394;SDS011;3230;42.588;23.358;2022-11-20T14:07:50;2.00;;;1.33;;
6394;SDS011;3230;42.588;23.358;2022-11-20T14:10:26;4.63;;;1.50;;
6394;SDS011;3230;42.588;23.358;2022-11-20T14:12:53;3.43;;;1.60;;
6394;SDS011;3230;42.588;23.358;2022-11-20T14:15:28;1.60;;;1.50;;
6394;SDS011;3230;42.588;23.358;2022-11-20T14:17:55;4.50;;;2.40;;
6394;SDS011;3230;42.588;23.358;2022-11-20T14:20:23;5.40;;;1.90;;
6394;SDS011;3230;42.588;23.358;2022-11-20T14:22:54;2.40;;;1.60;;
6394;SDS011;3230;42.588;23.358;2022-11-20T14:27:51;4.83;;;1.80;;
6394;SDS011;3230;42.588;23.358;2022-11-20T14:30:22;4.80;;;2.60;;
6394;SDS011;3230;42.588;23.358;2022-11-20T14:32:50;22.60;;;13.60;;
6394;SDS011;3230;42.588;23.358;2022-11-20T14:35:25;13.97;;;7.87;;
6394;SDS011;3230;42.588;23.358;2022-11-20T14:37:54;25.80;;;15.60;;
6394;SDS011;3230;42.588;23.358;2022-11-20T14:42:54;15.23;;;9.27;;
6394;SDS011;3230;42.588;23.358;2022-11-20T14:45:20;9.90;;;4.37;;
6394;SDS011;3230;42.588;23.358;2022-11-20T14:47:46;5.07;;;3.40;;
6394;SDS011;3230;42.588;23.358;2022-11-20T14:50:16;4.53;;;2.40;;
6394;SDS011;3230;42.588;23.358;2022-11-20T14:52:55;5.03;;;2.83;;
6394;SDS011;3230;42.588;23.358;2022-11-20T14:55:35;7.53;;;3.60;;
6394;SDS011;3230;42.588;23.358;2022-11-20T14:58:04;9.03;;;4.03;;
6394;SDS011;3230;42.588;23.358;2022-11-20T15:00:31;10.37;;;3.83;;
6394;SDS011;3230;42.588;23.358;2022-11-20T15:02:58;7.37;;;3.80;;
6394;SDS011;3230;42.588;23.358;2022-11-20T15:05:25;4.40;;;2.77;;
6394;SDS011;3230;42.588;23.358;2022-11-20T15:08:10;9.47;;;3.97;;
6394;SDS011;3230;42.588;23.358;2022-11-20T15:10:35;6.93;;;4.13;;
6394;SDS011;3230;42.588;23.358;2022-11-20T15:13:04;5.00;;;3.63;;
6394;SDS011;3230;42.588;23.358;2022-11-20T15:15:42;7.63;;;4.50;;
6394;SDS011;3230;42.588;23.358;2022-11-20T15:18:18;4.30;;;3.27;;
6394;SDS011;3230;42.588;23.358;2022-11-20T15:20:46;5.73;;;2.70;;
6394;SDS011;3230;42.588;23.358;2022-11-20T15:23:13;5.00;;;2.93;;
6394;SDS011;3230;42.588;23.358;2022-11-20T15:25:40;3.63;;;2.17;;
6394;SDS011;3230;42.588;23.358;2022-11-20T15:28:27;5.77;;;2.70;;
6394;SDS011;3230;42.588;23.358;2022-11-20T15:30:56;7.90;;;4.43;;
6394;SDS011;3230;42.588;23.358;2022-11-20T15:33:22;9.20;;;3.83;;
6394;SDS011;3230;42.588;23.358;2022-11-20T15:35:47;4.07;;;2.10;;
6394;SDS011;3230;42.588;23.358;2022-11-20T15:38:13;5.20;;;3.00;;
6394;SDS011;3230;42.588;23.358;2022-11-20T15:40:39;12.77;;;8.20;;
6394;SDS011;3230;42.588;23.358;2022-11-20T15:43:04;17.33;;;8.63;;
6394;SDS011;3230;42.588;23.358;2022-11-20T15:45:37;2.30;;;1.67;;
6394;SDS011;3230;42.588;23.358;2022-11-20T15:48:14;1.13;;;1.00;;
6394;SDS011;3230;42.588;23.358;2022-11-20T15:50:55;2.03;;;1.10;;
6394;SDS011;3230;42.588;23.358;2022-11-20T15:53:23;3.40;;;2.27;;
6394;SDS011;3230;42.588;23.358;2022-11-20T15:55:49;1.43;;;1.10;;
6394;SDS011;3230;42.588;23.358;2022-11-20T15:58:14;2.67;;;0.97;;
6394;SDS011;3230;42.588;23.358;2022-11-20T16:00:42;1.37;;;1.20;;
6394;SDS011;3230;42.588;23.358;2022-11-20T16:03:11;1.87;;;1.20;;
6394;SDS011;3230;42.588;23.358;2022-11-20T16:05:37;0.97;;;0.90;;
6394;SDS011;3230;42.588;23.358;2022-11-20T16:08:03;1.87;;;1.70;;
6394;SDS011;3230;42.588;23.358;2022-11-20T16:10:29;4.70;;;2.00;;
6394;SDS011;3230;42.588;23.358;2022-11-20T16:12:54;3.53;;;2.23;;
6394;SDS011;3230;42.588;23.358;2022-11-20T16:15:38;3.50;;;2.50;;
6394;SDS011;3230;42.588;23.358;2022-11-20T16:18:10;3.97;;;2.40;;
6394;SDS011;3230;42.588;23.358;2022-11-20T16:20:36;3.50;;;2.70;;
6394;SDS011;3230;42.588;23.358;2022-11-20T16:23:04;3.87;;;2.90;;
6394;SDS011;3230;42.588;23.358;2022-11-20T16:25:30;3.33;;;3.03;;
6394;SDS011;3230;42.588;23.358;2022-11-20T16:27:56;6.17;;;3.93;;
6394;SDS011;3230;42.588;23.358;2022-11-20T16:30:21;15.90;;;10.80;;
6394;SDS011;3230;42.588;23.358;2022-11-20T16:32:47;3.60;;;2.90;;
6394;SDS011;3230;42.588;23.358;2022-11-20T16:35:13;4.43;;;2.70;;
6394;SDS011;3230;42.588;23.358;2022-11-20T16:37:38;5.47;;;3.63;;
6394;SDS011;3230;42.588;23.358;2022-11-20T16:40:04;5.60;;;3.77;;
6394;SDS011;3230;42.588;23.358;2022-11-20T16:42:33;5.70;;;3.90;;
6394;SDS011;3230;42.588;23.358;2022-11-20T16:44:59;5.53;;;4.03;;
6394;SDS011;3230;42.588;23.358;2022-11-20T16:47:25;4.00;;;3.07;;
6394;SDS011;3230;42.588;23.358;2022-11-20T16:49:50;5.40;;;2.57;;
6394;SDS011;3230;42.588;23.358;2022-11-20T16:52:16;3.60;;;3.07;;
6394;SDS011;3230;42.588;23.358;2022-11-20T16:54:41;6.70;;;3.90;;
6394;SDS011;3230;42.588;23.358;2022-11-20T16:57:06;16.70;;;3.93;;
6394;SDS011;3230;42.588;23.358;2022-11-20T16:59:32;40.20;;;6.43;;